createdAt,value
2023-04-30T00:03:02.090Z,43.4
2023-04-30T00:08:02.810Z,43.3
2023-04-30T00:13:03.420Z,43.3
2023-04-30T00:18:04.043Z,43.3
2023-04-30T00:23:04.734Z,43.1
2023-04-30T00:28:05.325Z,43.1
2023-04-30T00:33:06.054Z,43
2023-04-30T00:38:06.669Z,43
2023-04-30T00:43:07.244Z,42.9
2023-04-30T00:48:07.945Z,42.9
2023-04-30T00:53:08.602Z,42.8
2023-04-30T00:58:09.201Z,42.7
2023-04-30T01:03:09.958Z,42.7
2023-04-30T01:08:10.671Z,42.6
2023-04-30T01:13:11.309Z,42.6
2023-04-30T01:18:12.185Z,42.5
2023-04-30T01:23:12.831Z,42.4
2023-04-30T01:28:13.395Z,42.4
2023-04-30T01:33:13.973Z,42.4
2023-04-30T01:38:14.543Z,42.3
2023-04-30T01:43:15.139Z,42.2
2023-04-30T01:48:15.711Z,42.2
2023-04-30T01:53:16.251Z,42.1
2023-04-30T01:58:16.841Z,42.1
2023-04-30T02:03:17.482Z,42
2023-04-30T02:08:18.096Z,41.9
2023-04-30T02:13:18.625Z,41.9
2023-04-30T02:18:19.213Z,41.9
2023-04-30T02:23:19.874Z,41.8
2023-04-30T02:28:20.355Z,41.7
2023-04-30T02:33:20.875Z,41.7
2023-04-30T02:38:21.405Z,41.6
2023-04-30T02:43:21.920Z,41.6
2023-04-30T02:48:22.430Z,41.6
2023-04-30T02:53:22.906Z,41.5
2023-04-30T02:58:23.365Z,41.4
2023-04-30T03:03:23.913Z,41.4
2023-04-30T03:08:24.506Z,41.3
2023-04-30T03:13:24.960Z,41.3
2023-04-30T03:18:25.503Z,41.2
2023-04-30T03:23:25.958Z,41.2
2023-04-30T03:28:26.437Z,41.1
2023-04-30T03:33:26.928Z,41.1
2023-04-30T03:38:27.426Z,41.1
2023-04-30T03:43:27.935Z,41
2023-04-30T03:48:28.506Z,40.9
2023-04-30T03:53:29.100Z,40.9
2023-04-30T03:58:29.717Z,40.9
2023-04-30T04:03:30.241Z,40.8
2023-04-30T04:08:30.865Z,40.8
2023-04-30T04:13:31.445Z,40.7
2023-04-30T04:18:31.929Z,40.7
2023-04-30T04:23:32.440Z,40.6
2023-04-30T04:28:32.948Z,40.6
2023-04-30T04:33:33.473Z,40.5
2023-04-30T04:38:34.007Z,40.5
2023-04-30T04:43:34.499Z,40.4
2023-04-30T04:48:35.029Z,40.4
2023-04-30T04:53:35.499Z,40.4
2023-04-30T04:58:36.040Z,40.3
2023-04-30T05:03:36.657Z,40.2
2023-04-30T05:08:37.316Z,40.2
2023-04-30T05:13:37.916Z,40.2
2023-04-30T05:18:38.438Z,40.1
2023-04-30T05:23:38.895Z,40.1
2023-04-30T05:28:39.444Z,40.1
2023-04-30T05:33:39.928Z,40
2023-04-30T05:38:40.569Z,39.9
2023-04-30T05:43:41.086Z,39.9
2023-04-30T05:48:41.759Z,39.9
2023-04-30T05:53:42.245Z,39.8
2023-04-30T05:58:42.734Z,39.8
2023-04-30T06:03:43.252Z,39.7
2023-04-30T06:08:43.896Z,39.7
2023-04-30T06:13:44.362Z,39.7
2023-04-30T06:18:44.883Z,39.6
2023-04-30T06:23:45.377Z,39.6
2023-04-30T06:28:45.858Z,39.6
2023-04-30T06:33:46.298Z,39.5
2023-04-30T06:38:46.755Z,39.5
2023-04-30T06:43:47.251Z,39.4
2023-04-30T06:48:47.828Z,39.4
2023-04-30T06:53:48.370Z,39.4
2023-04-30T06:58:48.862Z,39.3
2023-04-30T07:03:49.700Z,39.2
2023-04-30T07:08:50.361Z,39.2
2023-04-30T07:13:50.851Z,39.2
2023-04-30T07:18:52.213Z,39.1
2023-04-30T07:23:53.527Z,39.1
2023-04-30T07:28:53.996Z,39.1
2023-04-30T07:33:54.522Z,39
2023-04-30T07:38:54.965Z,38.9
2023-04-30T07:43:55.534Z,38.9
2023-04-30T07:48:56.197Z,38.9
2023-04-30T07:53:56.671Z,38.8
2023-04-30T07:58:57.128Z,38.8
2023-04-30T08:03:57.768Z,38.7
2023-04-30T08:08:58.280Z,38.7
2023-04-30T08:13:58.800Z,38.7
2023-04-30T08:18:59.256Z,38.6
2023-04-30T08:23:59.689Z,38.6
2023-04-30T08:29:00.236Z,38.6
2023-04-30T08:34:01.584Z,38.5
2023-04-30T08:39:02.052Z,38.5
2023-04-30T08:44:02.519Z,38.4
2023-04-30T08:49:03.047Z,38.4
2023-04-30T08:54:03.506Z,38.4
2023-04-30T08:59:03.954Z,38.4
2023-04-30T09:04:04.513Z,38.3
2023-04-30T09:09:05.185Z,38.3
2023-04-30T09:14:05.707Z,38.2
2023-04-30T09:19:06.169Z,38.2
2023-04-30T09:24:06.790Z,38.2
2023-04-30T09:29:07.277Z,38.2
2023-04-30T09:34:07.830Z,38.1
2023-04-30T09:39:09.972Z,38.1
2023-04-30T09:44:11.307Z,38.1
2023-04-30T09:49:11.747Z,38.1
2023-04-30T09:54:12.188Z,38
2023-04-30T09:59:12.692Z,37.9
2023-04-30T10:04:13.131Z,37.9
2023-04-30T10:09:13.602Z,37.9
2023-04-30T10:14:14.160Z,37.9
2023-04-30T10:19:14.580Z,37.8
2023-04-30T10:24:15.020Z,37.8
2023-04-30T10:29:15.481Z,37.7
2023-04-30T10:34:16.777Z,37.7
2023-04-30T10:39:17.383Z,37.7
2023-04-30T10:44:17.798Z,37.7
2023-04-30T10:49:18.195Z,37.6
2023-04-30T10:54:18.598Z,37.6
2023-04-30T10:59:18.975Z,37.6
2023-04-30T11:04:19.396Z,37.6
2023-04-30T11:09:19.787Z,37.5
2023-04-30T11:14:20.192Z,37.5
2023-04-30T11:19:20.598Z,37.4
2023-04-30T11:24:21.168Z,37.1
2023-04-30T11:29:21.609Z,37.1
2023-04-30T11:34:22.162Z,37
2023-04-30T11:39:22.626Z,36.9
2023-04-30T11:44:23.170Z,36.8
2023-04-30T11:49:23.620Z,36.7
2023-04-30T11:54:24.092Z,36.7
2023-04-30T11:59:24.497Z,36.7
2023-04-30T12:04:24.991Z,36.6
2023-04-30T12:09:25.528Z,36.3
2023-04-30T12:14:25.905Z,36.2
2023-04-30T12:19:26.484Z,36.2
2023-04-30T12:24:26.890Z,36.2
2023-04-30T12:29:27.333Z,36.2
2023-04-30T12:34:27.711Z,36.2
2023-04-30T12:39:28.093Z,36.1
2023-04-30T12:44:28.509Z,36.1
2023-04-30T12:49:28.950Z,36.1
2023-04-30T12:54:29.329Z,35.2
2023-04-30T12:59:29.780Z,34.9
2023-04-30T13:04:30.190Z,34.9
2023-04-30T13:09:30.706Z,34.9
2023-04-30T13:14:31.144Z,34.8
2023-04-30T13:19:31.643Z,34.8
2023-04-30T13:24:32.150Z,34.7
2023-04-30T13:29:32.585Z,34.7
2023-04-30T13:34:32.904Z,34.7
2023-04-30T13:39:34.115Z,34.7
2023-04-30T13:44:34.463Z,34.7
2023-04-30T13:49:34.800Z,34.7
2023-04-30T13:54:35.264Z,37.1
2023-04-30T13:59:36.660Z,39.9
2023-04-30T14:04:37.243Z,41.6
2023-04-30T14:09:37.734Z,41.9
2023-04-30T14:14:39.316Z,42.5
2023-04-30T14:19:39.992Z,42.9
2023-04-30T14:24:40.579Z,42.9
2023-04-30T14:29:41.176Z,43.1
2023-04-30T14:34:42.711Z,43.7
2023-04-30T14:39:43.364Z,43.9
2023-04-30T14:44:43.997Z,44.2
2023-04-30T14:49:44.899Z,44.8
2023-04-30T14:54:46.422Z,44.9
2023-04-30T14:59:47.968Z,44.4
2023-04-30T15:04:48.625Z,43.9
2023-04-30T15:09:49.296Z,44.4
2023-04-30T15:14:49.966Z,44.5
2023-04-30T15:19:50.663Z,45.2
2023-04-30T15:24:51.488Z,45.5
2023-04-30T15:29:52.217Z,45.5
2023-04-30T15:34:52.889Z,45.4
2023-04-30T15:39:53.866Z,45.5
2023-04-30T15:44:54.696Z,45.8
2023-04-30T15:49:55.587Z,46.1
2023-04-30T15:54:56.432Z,46.5
2023-04-30T15:59:57.548Z,46.9
2023-04-30T16:04:58.411Z,46.9
2023-04-30T16:09:59.122Z,46.9
2023-04-30T16:15:00.026Z,46.9
2023-04-30T16:20:00.774Z,46.7
2023-04-30T16:25:02.281Z,43.4
2023-04-30T16:30:02.823Z,35.3
2023-04-30T16:35:04.634Z,19.9
2023-04-30T16:40:06.083Z,15.8
2023-04-30T16:45:07.509Z,14.9
2023-04-30T16:50:08.941Z,14.7
2023-04-30T16:55:10.376Z,14.7
2023-04-30T17:00:11.808Z,14.7
2023-04-30T17:05:13.253Z,14.7
2023-04-30T17:10:14.981Z,14.7
2023-04-30T17:15:16.657Z,14.7
2023-04-30T17:20:18.162Z,14.8
2023-04-30T17:25:19.762Z,14.8
2023-04-30T17:30:21.225Z,14.9
2023-04-30T17:35:22.799Z,14.9
2023-04-30T17:40:24.412Z,14.9
2023-04-30T17:45:25.972Z,14.9
2023-04-30T17:50:27.968Z,15
2023-04-30T17:55:29.490Z,15
2023-04-30T18:00:30.989Z,15.1
2023-04-30T18:05:34.842Z,15.1
2023-04-30T18:10:36.895Z,15.1
2023-04-30T18:15:38.515Z,15
2023-04-30T18:20:40.109Z,15.1
2023-04-30T18:25:41.965Z,15.1
2023-04-30T18:30:43.425Z,15.1
2023-04-30T18:35:44.880Z,15.1
2023-04-30T18:40:46.346Z,15.2
2023-04-30T18:45:47.901Z,15.2
2023-04-30T18:50:49.480Z,15.3
2023-04-30T18:55:50.963Z,15.3
2023-04-30T19:00:52.501Z,15.3
2023-04-30T19:05:54.085Z,15.4
2023-04-30T19:10:55.535Z,15.4
2023-04-30T19:15:57.024Z,15.4
2023-04-30T19:20:57.718Z,15.4
2023-04-30T19:25:59.334Z,15.5
2023-04-30T19:31:01.137Z,15.5
2023-04-30T19:36:02.814Z,15.6
2023-04-30T19:41:04.273Z,15.6
2023-04-30T19:46:05.781Z,15.6
2023-04-30T19:51:07.390Z,15.6
2023-04-30T19:56:08.823Z,15.7
2023-04-30T20:01:10.336Z,15.7
2023-04-30T20:06:11.914Z,15.8
2023-04-30T20:11:13.485Z,15.8
2023-04-30T20:16:15.009Z,15.8
2023-04-30T20:21:17.117Z,15.8
2023-04-30T20:26:19.698Z,15.9
2023-04-30T20:31:20.410Z,15.9
2023-04-30T20:36:22.150Z,15.9
2023-04-30T20:41:23.763Z,16
2023-04-30T20:46:25.289Z,16
2023-04-30T20:51:26.883Z,16.1
2023-04-30T20:56:28.334Z,16.1
2023-04-30T21:01:29.896Z,16.1
2023-04-30T21:06:31.516Z,16.1
2023-04-30T21:11:33.169Z,16.2
2023-04-30T21:16:34.737Z,16.3
2023-04-30T21:21:36.315Z,16.3
2023-04-30T21:26:37.843Z,16.3
2023-04-30T21:31:39.657Z,16.4
2023-04-30T21:36:41.144Z,16.4
2023-04-30T21:41:42.627Z,16.4
2023-04-30T21:46:44.211Z,16.4
2023-04-30T21:51:45.713Z,16.5
2023-04-30T21:56:47.193Z,16.5
2023-04-30T22:01:48.736Z,16.6
2023-04-30T22:06:50.577Z,16.6
2023-04-30T22:11:52.179Z,16.6
2023-04-30T22:16:53.967Z,16.6
2023-04-30T22:21:55.480Z,16.7
2023-04-30T22:26:56.956Z,16.7
2023-04-30T22:31:58.501Z,16.8
2023-04-30T22:37:00.069Z,16.8
2023-04-30T22:42:01.642Z,16.8
2023-04-30T22:47:03.196Z,16.8
2023-04-30T22:52:04.900Z,16.9
2023-04-30T22:57:06.389Z,16.9
2023-04-30T23:02:07.966Z,16.9
2023-04-30T23:07:09.489Z,16.9
2023-04-30T23:12:11.050Z,17
2023-04-30T23:17:11.844Z,17
2023-04-30T23:22:14.284Z,17.1
2023-04-30T23:27:15.741Z,17.1
2023-04-30T23:32:17.264Z,17.1
2023-04-30T23:37:18.800Z,17.1
2023-04-30T23:42:20.231Z,17.2
2023-04-30T23:47:21.748Z,17.2
2023-04-30T23:52:23.230Z,17.2
2023-04-30T23:57:24.845Z,17.2
